Current Weather

Republic

Farmingdale, New York (KFRG)

Report from: Friday, February 23, 2024 1:53 PM EST
Current time: Friday, February 23, 2024 2:19 PM EST

Nearby weather – Weather history – Daily summaries
Weather forecast

Temperature7.8°C (46.0°F)
Wind chill5.2°C (41.4°F)
Dew point3.9°C (39.0°F)
Winds 8 kts (4.1 m/s, 9.2 mph) North (10°)
Visibility10 mi. (16.1 km)
Clouds Ceiling: Overcast 1,600 ft. (488 m)
Altimeter29.46 in.Hg (998 mB)
Relative humidity76 %
Density altitude-207 ft. (-63 m)
Sea-level pressure99.8 kPa (998 mB, 29.46 in.Hg)
Remarks Automated weather observing station without precipitation discriminator
Flight conditions Marginal Visual Meteorological Conditions
Raw dataKFRG 231853Z 01008KT 10SM OVC016 08/04 A2946 RMK AO1 SLP975 T00780039
An error has occurred. This application may no longer respond until reloaded. Reload 🗙